Time;durP1;ratioP1;P1;durP2;ratioP2;P2;SDS_P1;SDS_P2;PMS_P1;PMS_P2;Temp;Humidity;BMP_temperature;BMP_pressure;BME280_temperature;BME280_humidity;BME280_pressure;Samples;Min_cycle;Max_cycle;Signal;HPM_P1;HPM_P2
2024/03/04 00:03:41;;;;;;;13.32;6.50;;;9.20;99.90;;;;;;8452973;28;20051;-76
2024/03/04 00:07:43;;;;;;;12.18;6.05;;;9.20;99.90;;;;;;8458601;28;20079;-76
2024/03/04 00:11:45;;;;;;;13.00;5.50;;;9.20;99.90;;;;;;8455345;28;20426;-76
2024/03/04 00:15:50;;;;;;;13.02;6.35;;;9.10;99.90;;;;;;8446336;28;20047;-76
2024/03/04 00:19:52;;;;;;;11.30;5.32;;;9.20;99.90;;;;;;8445182;28;20112;-76
2024/03/04 00:23:54;;;;;;;10.85;5.53;;;9.20;99.90;;;;;;8455162;28;20047;-76
2024/03/04 00:27:56;;;;;;;9.32;4.57;;;9.20;99.90;;;;;;8454541;28;20043;-75
2024/03/04 00:31:58;;;;;;;10.05;4.97;;;9.20;99.90;;;;;;8456519;28;20310;-76
2024/03/04 00:36:05;;;;;;;10.82;5.15;;;9.20;99.90;;;;;;8450048;28;20078;-76
2024/03/04 00:40:08;;;;;;;11.83;4.57;;;9.20;99.90;;;;;;8456566;28;20780;-76
2024/03/04 00:44:10;;;;;;;14.38;4.20;;;9.20;99.90;;;;;;8451954;28;20052;-76
2024/03/04 00:48:12;;;;;;;8.07;4.00;;;9.20;99.90;;;;;;8455921;28;20047;-76
2024/03/04 00:52:16;;;;;;;10.07;4.13;;;9.10;99.90;;;;;;8457112;28;20062;-76
2024/03/04 00:56:18;;;;;;;8.48;4.18;;;9.10;99.90;;;;;;8453990;28;20082;-76
2024/03/04 01:00:20;;;;;;;9.70;4.07;;;9.10;99.90;;;;;;8454390;28;20043;-72
2024/03/04 01:04:22;;;;;;;8.23;3.10;;;9.00;99.90;;;;;;8454037;28;20043;-72
2024/03/04 01:08:24;;;;;;;6.53;3.00;;;9.00;99.90;;;;;;8453025;28;20059;-72
2024/03/04 01:12:26;;;;;;;6.03;2.95;;;9.00;99.90;;;;;;8453415;28;20080;-72
2024/03/04 01:16:28;;;;;;;7.25;2.83;;;8.90;99.90;;;;;;8445100;28;20044;-72
2024/03/04 01:20:32;;;;;;;6.22;2.90;;;8.90;99.90;;;;;;8455719;28;20047;-72
2024/03/04 01:24:34;;;;;;;7.47;2.90;;;8.90;99.90;;;;;;8454789;28;20062;-72
2024/03/04 01:28:36;;;;;;;6.50;2.50;;;8.90;99.90;;;;;;8448335;28;20384;-72
2024/03/04 01:32:38;;;;;;;7.93;3.05;;;8.90;99.90;;;;;;8455061;28;20055;-72
2024/03/04 01:36:41;;;;;;;11.57;3.20;;;8.90;99.90;;;;;;8453078;28;20445;-72
2024/03/04 01:40:42;;;;;;;11.27;2.95;;;9.00;99.90;;;;;;8452847;28;20085;-71
2024/03/04 01:44:45;;;;;;;6.35;2.67;;;9.00;99.90;;;;;;8450715;28;20052;-71
2024/03/04 01:48:47;;;;;;;8.50;2.60;;;8.90;99.90;;;;;;8454008;28;20051;-72
2024/03/04 01:52:50;;;;;;;7.65;2.88;;;8.90;99.90;;;;;;8454529;28;20059;-71
2024/03/04 01:56:53;;;;;;;8.38;2.75;;;8.90;99.90;;;;;;8448619;28;20452;-72
2024/03/04 02:00:56;;;;;;;9.52;3.05;;;9.00;99.90;;;;;;8456937;28;20392;-72
2024/03/04 02:04:58;;;;;;;8.60;3.15;;;8.90;99.90;;;;;;8461817;27;20130;-72
2024/03/04 02:09:00;;;;;;;6.63;2.65;;;8.90;99.90;;;;;;8457209;28;20040;-72
2024/03/04 02:13:04;;;;;;;9.77;3.47;;;8.90;99.90;;;;;;8457857;28;20055;-72
2024/03/04 02:17:07;;;;;;;7.70;2.95;;;8.90;99.90;;;;;;8448668;27;20046;-72
2024/03/04 02:21:10;;;;;;;10.18;3.67;;;8.90;99.90;;;;;;8448878;28;20040;-72
2024/03/04 02:25:12;;;;;;;8.98;4.10;;;8.90;99.90;;;;;;8449922;28;20040;-72
2024/03/04 02:29:14;;;;;;;12.05;3.80;;;8.90;99.90;;;;;;8456324;28;20039;-72
2024/03/04 02:33:20;;;;;;;8.82;3.50;;;8.90;99.90;;;;;;8459217;28;20489;-72
2024/03/04 02:37:22;;;;;;;7.38;3.35;;;8.90;99.90;;;;;;8458060;28;20052;-71
2024/03/04 02:41:26;;;;;;;9.20;3.80;;;8.90;99.90;;;;;;8456680;28;20078;-72
2024/03/04 02:45:28;;;;;;;12.45;3.40;;;8.80;99.90;;;;;;8460086;28;20055;-72
2024/03/04 02:49:30;;;;;;;8.23;3.70;;;8.80;99.90;;;;;;8457641;28;20046;-71
2024/03/04 02:53:32;;;;;;;10.45;3.78;;;8.80;99.90;;;;;;8461190;27;20053;-72
2024/03/04 02:57:34;;;;;;;11.07;3.80;;;8.80;99.90;;;;;;8460133;27;20046;-72
2024/03/04 03:01:35;;;;;;;12.82;3.35;;;8.80;99.90;;;;;;8456747;28;20620;-72
2024/03/04 03:05:43;;;;;;;8.95;3.70;;;8.80;99.90;;;;;;8458605;28;20114;-72
2024/03/04 03:09:45;;;;;;;;;;;8.70;99.90;;;;;;8454847;28;20047;-72
2024/03/04 03:13:47;;;;;;;7.38;3.72;;;8.70;99.90;;;;;;8455898;28;19924;-72
2024/03/04 03:17:49;;;;;;;12.10;3.70;;;8.70;99.90;;;;;;8456436;28;20043;-72
2024/03/04 03:21:52;;;;;;;6.88;3.65;;;8.60;99.90;;;;;;8454676;28;20051;-72
2024/03/04 03:25:54;;;;;;;8.60;3.72;;;8.60;99.90;;;;;;8457069;27;20051;-72
2024/03/04 03:29:55;;;;;;;9.75;3.97;;;8.60;99.90;;;;;;8453626;28;20183;-72
2024/03/04 03:33:57;;;;;;;10.77;3.40;;;8.60;99.90;;;;;;8453101;28;20456;-72
2024/03/04 03:37:59;;;;;;;8.48;3.13;;;8.50;99.90;;;;;;8457820;28;20081;-72
2024/03/04 03:42:04;;;;;;;12.27;3.25;;;8.50;99.90;;;;;;8454655;28;20048;-71
2024/03/04 03:46:06;;;;;;;6.88;3.00;;;8.50;99.90;;;;;;8457705;28;20055;-72
2024/03/04 03:50:08;;;;;;;7.63;3.13;;;8.50;99.90;;;;;;8457353;28;20049;-72
2024/03/04 03:54:10;;;;;;;10.25;3.25;;;8.50;99.90;;;;;;8455029;28;20052;-72
2024/03/04 03:58:12;;;;;;;7.20;3.20;;;8.50;99.90;;;;;;8457608;28;20454;-72
2024/03/04 04:02:14;;;;;;;5.82;2.83;;;8.50;99.90;;;;;;8454464;28;20039;-72
2024/03/04 04:06:15;;;;;;;8.13;3.15;;;8.50;99.90;;;;;;8455947;28;20047;-72
2024/03/04 04:10:17;;;;;;;7.38;2.97;;;8.50;99.90;;;;;;8458211;28;20043;-72
2024/03/04 04:14:19;;;;;;;10.52;3.65;;;8.50;99.90;;;;;;8452918;28;20097;-72
2024/03/04 04:18:21;;;;;;;9.57;3.58;;;8.50;99.90;;;;;;8443440;28;20039;-72
2024/03/04 04:22:23;;;;;;;7.93;3.47;;;8.40;99.90;;;;;;8455348;28;20043;-72
2024/03/04 04:26:26;;;;;;;7.07;3.00;;;8.40;99.90;;;;;;8455547;28;20458;-71
2024/03/04 04:30:28;;;;;;;7.68;3.00;;;8.40;99.90;;;;;;8450754;28;20042;-71
2024/03/04 04:34:29;;;;;;;9.48;3.55;;;8.40;99.90;;;;;;8455433;27;20064;-71
2024/03/04 04:38:31;;;;;;;8.60;3.17;;;8.50;99.90;;;;;;8457086;28;20142;-71
2024/03/04 04:42:33;;;;;;;8.43;3.63;;;8.40;99.90;;;;;;8451892;28;20376;-71
2024/03/04 04:46:37;;;;;;;7.88;3.95;;;8.40;99.90;;;;;;8451934;28;20048;-71
2024/03/04 04:50:39;;;;;;;7.97;2.95;;;8.40;99.90;;;;;;8451587;28;20050;-72
2024/03/04 04:54:43;;;;;;;8.43;3.45;;;8.40;99.90;;;;;;8450191;28;20066;-71
2024/03/04 04:58:45;;;;;;;8.27;3.22;;;8.40;99.90;;;;;;8455681;28;20094;-71
2024/03/04 05:02:48;;;;;;;7.35;3.00;;;8.40;99.90;;;;;;8455934;28;20062;-71
2024/03/04 05:06:54;;;;;;;5.28;2.78;;;8.40;99.90;;;;;;8451241;28;20047;-71
2024/03/04 05:10:56;;;;;;;7.75;2.83;;;8.40;99.90;;;;;;8452196;28;20491;-71
2024/03/04 05:14:58;;;;;;;9.77;3.03;;;8.30;99.90;;;;;;8450714;28;20067;-71
2024/03/04 05:19:01;;;;;;;5.18;2.35;;;8.30;99.90;;;;;;8456062;28;20059;-71
2024/03/04 05:23:03;;;;;;;7.75;3.05;;;8.30;99.90;;;;;;8446019;28;20396;-71
2024/03/04 05:27:05;;;;;;;7.05;2.95;;;8.30;99.90;;;;;;8454919;28;20043;-71
2024/03/04 05:31:07;;;;;;;7.45;3.10;;;8.30;99.90;;;;;;8450515;28;20048;-72
2024/03/04 05:35:11;;;;;;;6.57;2.95;;;8.30;99.90;;;;;;8459028;28;20101;-71
2024/03/04 05:39:17;;;;;;;6.97;3.00;;;8.30;99.90;;;;;;8461635;28;20104;-71
2024/03/04 05:43:18;;;;;;;8.35;3.30;;;8.20;99.90;;;;;;8458872;27;20061;-71
2024/03/04 05:47:20;;;;;;;8.10;2.90;;;8.20;99.90;;;;;;8460715;28;20391;-71
2024/03/04 05:51:22;;;;;;;6.38;2.47;;;8.20;99.90;;;;;;8459543;28;20388;-71
2024/03/04 05:55:25;;;;;;;8.40;2.80;;;8.20;99.90;;;;;;8460164;28;20047;-71
2024/03/04 05:59:27;;;;;;;7.65;2.80;;;8.20;99.90;;;;;;8461046;27;20511;-72
2024/03/04 06:03:28;;;;;;;7.43;2.70;;;8.10;99.90;;;;;;8457033;28;20051;-71
2024/03/04 06:07:30;;;;;;;8.57;2.83;;;8.10;99.90;;;;;;8460758;28;20039;-71
2024/03/04 06:11:32;;;;;;;6.80;2.63;;;8.10;99.90;;;;;;8461530;28;20047;-71
2024/03/04 06:15:34;;;;;;;5.65;2.25;;;8.00;99.90;;;;;;8457060;28;20043;-71
2024/03/04 06:19:36;;;;;;;6.13;2.40;;;8.00;99.90;;;;;;8462665;28;20126;-71
2024/03/04 06:23:38;;;;;;;4.60;1.95;;;8.00;99.90;;;;;;8461165;28;20039;-71
2024/03/04 06:27:40;;;;;;;7.95;2.33;;;8.00;99.90;;;;;;8463670;28;20051;-71
2024/03/04 06:31:42;;;;;;;4.68;2.10;;;8.00;99.90;;;;;;8460093;28;20063;-71
2024/03/04 06:35:44;;;;;;;5.50;2.35;;;8.00;99.90;;;;;;8458871;27;20055;-71
2024/03/04 06:39:45;;;;;;;7.13;2.47;;;8.00;99.90;;;;;;8459903;27;20055;-72
2024/03/04 06:43:47;;;;;;;6.43;2.30;;;8.10;99.90;;;;;;8456876;28;20040;-71
2024/03/04 06:47:49;;;;;;;7.72;2.78;;;8.10;99.90;;;;;;8457116;28;20069;-71
2024/03/04 06:51:51;;;;;;;7.63;2.70;;;8.10;99.90;;;;;;8462307;28;20051;-72
2024/03/04 06:55:53;;;;;;;8.35;2.63;;;8.20;99.90;;;;;;8466002;27;20043;-71
2024/03/04 06:59:55;;;;;;;7.53;2.63;;;8.30;99.90;;;;;;8462943;28;20058;-72
2024/03/04 07:03:57;;;;;;;7.50;2.70;;;8.40;99.90;;;;;;8463298;28;20113;-71
2024/03/04 07:07:59;;;;;;;7.28;2.58;;;8.50;99.90;;;;;;8460073;28;20050;-71
2024/03/04 07:12:00;;;;;;;5.78;2.10;;;8.50;99.90;;;;;;8462172;28;20044;-71
2024/03/04 07:16:04;;;;;;;9.27;1.90;;;8.60;99.90;;;;;;8449268;27;20104;-71
2024/03/04 07:20:09;;;;;;;6.32;1.92;;;8.60;99.90;;;;;;8479352;27;20051;-71
2024/03/04 07:24:11;;;;;;;5.78;1.80;;;8.60;99.90;;;;;;8458913;28;20083;-71
2024/03/04 07:28:14;;;;;;;6.28;1.60;;;8.60;99.90;;;;;;8457305;28;20060;-72
2024/03/04 07:32:16;;;;;;;6.10;1.60;;;8.60;99.90;;;;;;8462111;28;20062;-71
2024/03/04 07:36:17;;;;;;;7.05;1.63;;;8.60;99.90;;;;;;8457654;28;20047;-71
2024/03/04 07:40:19;;;;;;;4.43;1.65;;;8.60;99.90;;;;;;8457997;28;20405;-71
2024/03/04 07:44:21;;;;;;;4.47;1.50;;;8.60;99.90;;;;;;8459367;28;20144;-72
2024/03/04 07:48:23;;;;;;;3.30;1.30;;;8.60;99.90;;;;;;8455126;27;20537;-71
2024/03/04 07:52:24;;;;;;;5.63;1.70;;;8.70;99.90;;;;;;8458736;28;20051;-71
2024/03/04 07:56:27;;;;;;;4.30;1.65;;;8.70;99.90;;;;;;8458404;28;20071;-71
2024/03/04 08:00:28;;;;;;;5.03;1.50;;;8.80;99.90;;;;;;8456018;28;20074;-71
2024/03/04 08:04:30;;;;;;;6.95;1.73;;;8.90;99.90;;;;;;8457805;28;20047;-71
2024/03/04 08:08:32;;;;;;;5.50;1.50;;;9.10;99.90;;;;;;8454811;28;20036;-72
2024/03/04 08:12:37;;;;;;;3.22;1.38;;;9.20;99.90;;;;;;8457801;28;20437;-71
2024/03/04 08:16:39;;;;;;;4.45;1.60;;;9.20;99.90;;;;;;8446725;28;20398;-71
2024/03/04 08:20:41;;;;;;;5.10;1.50;;;9.30;99.90;;;;;;8452977;27;20063;-71
2024/03/04 08:24:43;;;;;;;6.03;1.88;;;9.30;99.90;;;;;;8457524;28;20043;-71
2024/03/04 08:28:44;;;;;;;;;;;9.30;99.90;;;;;;8456178;28;20509;-72
2024/03/04 08:32:46;;;;;;;;;;;9.40;99.90;;;;;;8452499;28;20317;-72
2024/03/04 08:36:48;;;;;;;;;;;9.50;99.90;;;;;;8455889;28;19923;-72
2024/03/04 08:40:50;;;;;;;;;;;9.60;99.90;;;;;;8455197;28;19927;-72
2024/03/04 08:44:51;;;;;;;;;;;9.70;99.90;;;;;;8456251;27;20342;-72
2024/03/04 08:48:53;;;;;;;;;;;9.70;99.90;;;;;;8459053;28;20220;-72
2024/03/04 08:52:55;;;;;;;;;;;9.80;99.90;;;;;;8454313;27;20024;-72
2024/03/04 08:56:56;;;;;;;;;;;9.80;99.90;;;;;;8459264;28;19923;-72
2024/03/04 09:01:00;;;;;;;;;;;9.90;99.90;;;;;;8456669;28;19923;-72
2024/03/04 09:05:02;;;;;;;;;;;10.00;99.90;;;;;;8454619;28;19920;-71
2024/03/04 09:09:08;;;;;;;;;;;10.00;99.90;;;;;;8456509;28;20355;-72
2024/03/04 09:13:10;;;;;;;;;;;10.00;99.90;;;;;;8466113;27;19923;-71
2024/03/04 09:17:12;;;;;;;;;;;10.10;99.90;;;;;;8453169;28;19920;-72
2024/03/04 09:21:13;;;;;;;;;;;10.10;99.90;;;;;;8465148;27;19959;-71
2024/03/04 09:25:15;;;;;;;5.40;2.27;;;10.20;99.90;;;;;;8464942;27;19923;-71
2024/03/04 09:29:17;;;;;;;3.45;1.80;;;10.20;99.90;;;;;;8467144;28;20054;-71
2024/03/04 09:33:19;;;;;;;5.07;1.80;;;10.30;99.90;;;;;;8465248;28;20070;-72
2024/03/04 09:37:21;;;;;;;5.82;2.08;;;10.40;99.90;;;;;;8468504;28;20044;-71
2024/03/04 09:41:24;;;;;;;5.47;2.28;;;10.60;99.90;;;;;;8463887;27;20650;-71
2024/03/04 09:45:27;;;;;;;5.25;2.20;;;10.70;99.90;;;;;;8461537;28;20048;-72
2024/03/04 09:49:29;;;;;;;7.45;2.47;;;10.80;99.90;;;;;;8468046;27;20051;-72
2024/03/04 09:53:35;;;;;;;4.70;2.10;;;10.90;99.90;;;;;;8467077;28;20055;-71
2024/03/04 09:57:37;;;;;;;6.45;2.15;;;11.10;99.90;;;;;;8467384;28;20047;-72
2024/03/04 10:01:40;;;;;;;4.70;2.20;;;11.20;99.90;;;;;;8461256;28;20051;-72
2024/03/04 10:05:42;;;;;;;5.60;2.08;;;11.30;99.90;;;;;;8464119;28;20059;-72
2024/03/04 10:09:44;;;;;;;4.38;1.85;;;11.30;99.90;;;;;;8462959;28;20044;-72
2024/03/04 10:13:46;;;;;;;5.75;2.00;;;11.40;99.90;;;;;;8461175;27;20099;-72
2024/03/04 10:17:50;;;;;;;5.32;2.00;;;11.50;99.90;;;;;;8462111;28;20058;-72
2024/03/04 10:21:54;;;;;;;3.70;1.92;;;11.60;99.90;;;;;;8461817;28;20058;-72
2024/03/04 10:26:07;;;;;;;5.05;2.38;;;11.70;99.90;;;;;;8462621;28;20089;-72
2024/03/04 10:30:14;;;;;;;8.20;2.35;;;11.80;99.90;;;;;;8464212;28;20054;-72
2024/03/04 10:34:15;;;;;;;4.28;2.30;;;11.80;99.90;;;;;;8460628;27;20074;-72
2024/03/04 10:38:19;;;;;;;4.00;2.20;;;12.10;99.90;;;;;;8462718;28;20100;-72
2024/03/04 10:42:22;;;;;;;4.25;2.22;;;12.60;99.90;;;;;;8459691;28;20043;-72
2024/03/04 10:46:25;;;;;;;5.32;2.10;;;13.10;99.90;;;;;;8455327;27;20059;-72
2024/03/04 10:50:27;;;;;;;4.40;1.60;;;13.60;99.90;;;;;;8462100;28;20256;-72
2024/03/04 10:54:29;;;;;;;3.88;1.70;;;14.00;99.90;;;;;;8457288;28;20729;-72
2024/03/04 10:58:37;;;;;;;4.40;2.00;;;14.30;99.90;;;;;;8459498;27;20627;-72
2024/03/04 11:02:45;;;;;;;3.95;1.55;;;14.70;99.90;;;;;;8457763;27;20051;-72
2024/03/04 11:06:47;;;;;;;3.13;1.50;;;15.10;99.90;;;;;;8459099;28;20043;-72
2024/03/04 11:11:15;;;;;;;5.22;1.63;;;15.20;99.90;;;;;;8462714;28;20056;-72
2024/03/04 11:15:18;;;;;;;3.45;1.80;;;15.20;99.90;;;;;;8454225;28;20092;-72
2024/03/04 11:19:32;;;;;;;5.60;2.00;;;15.60;99.90;;;;;;8458430;28;20044;-72
2024/03/04 11:23:35;;;;;;;3.20;1.80;;;15.90;99.90;;;;;;8461376;28;20451;-72
2024/03/04 11:27:37;;;;;;;4.28;2.17;;;16.10;99.90;;;;;;8460552;28;20055;-72
2024/03/04 11:31:39;;;;;;;3.95;1.90;;;16.40;99.90;;;;;;8457121;28;20487;-73
2024/03/04 11:35:41;;;;;;;6.35;2.10;;;16.60;99.90;;;;;;8456257;27;20093;-72
2024/03/04 11:39:44;;;;;;;3.65;2.00;;;16.70;99.90;;;;;;8460855;28;20047;-72
2024/03/04 11:43:50;;;;;;;4.07;1.85;;;16.80;99.90;;;;;;8457629;28;20047;-72
2024/03/04 11:47:52;;;;;;;4.60;2.15;;;17.10;99.90;;;;;;8454287;27;20047;-72
2024/03/04 11:52:08;;;;;;;6.00;2.17;;;17.50;99.90;;;;;;8456324;27;20048;-72
2024/03/04 11:56:10;;;;;;;6.67;2.20;;;17.60;99.90;;;;;;8436096;28;20044;-72
2024/03/04 12:00:15;;;;;;;6.72;2.40;;;17.50;99.90;;;;;;8443097;27;20043;-72
2024/03/04 12:04:18;;;;;;;3.95;2.17;;;17.90;99.90;;;;;;8447831;28;20043;-72
2024/03/04 12:08:21;;;;;;;5.53;2.42;;;18.30;99.90;;;;;;8447680;28;20415;-72
2024/03/04 12:12:44;;;;;;;4.72;2.15;;;18.70;99.90;;;;;;8447314;28;20423;-74
2024/03/04 12:16:46;;;;;;;3.80;1.73;;;18.80;99.90;;;;;;8437178;28;20052;-73
2024/03/04 12:20:48;;;;;;;4.53;1.77;;;18.90;99.90;;;;;;8418668;28;20055;-72
2024/03/04 12:25:05;;;;;;;4.45;1.52;;;19.00;99.90;;;;;;8432307;28;20052;-73
2024/03/04 12:29:07;;;;;;;4.80;1.92;;;18.90;99.90;;;;;;8435297;28;20044;-73
2024/03/04 12:33:09;;;;;;;3.60;1.80;;;18.80;99.90;;;;;;8435883;28;20051;-72
2024/03/04 12:37:22;;;;;;;3.28;1.60;;;18.60;99.90;;;;;;8437218;28;20089;-72
2024/03/04 12:41:25;;;;;;;3.67;1.58;;;18.40;99.90;;;;;;8433834;28;20131;-72
2024/03/04 12:45:29;;;;;;;2.83;1.48;;;18.20;99.90;;;;;;8438846;28;20051;-73
2024/03/04 12:49:31;;;;;;;2.97;1.40;;;18.10;99.90;;;;;;8435163;28;20479;-72
2024/03/04 12:53:35;;;;;;;3.60;1.60;;;18.10;99.90;;;;;;8434821;28;20116;-72
2024/03/04 12:57:37;;;;;;;3.72;1.45;;;18.30;99.90;;;;;;8440433;28;20051;-73
2024/03/04 13:01:39;;;;;;;4.28;1.63;;;18.20;99.90;;;;;;8433572;28;20624;-73
2024/03/04 13:05:41;;;;;;;3.47;1.80;;;17.80;99.90;;;;;;8436935;28;20051;-72
2024/03/04 13:09:43;;;;;;;4.70;1.70;;;17.30;99.90;;;;;;8436085;28;20369;-72
2024/03/04 13:13:45;;;;;;;5.82;1.73;;;16.80;99.90;;;;;;8433798;28;20109;-72
2024/03/04 13:17:47;;;;;;;3.40;1.77;;;16.50;99.90;;;;;;8434025;28;20051;-72
2024/03/04 13:21:49;;;;;;;3.45;1.90;;;16.20;99.90;;;;;;8439092;28;20051;-73
2024/03/04 13:25:50;;;;;;;5.22;2.00;;;16.20;99.90;;;;;;8436067;28;20084;-73
2024/03/04 13:29:52;;;;;;;4.28;2.00;;;16.00;99.90;;;;;;8442084;28;20053;-73
2024/03/04 13:33:54;;;;;;;4.95;2.10;;;15.80;99.90;;;;;;8432257;28;20467;-73
2024/03/04 13:37:57;;;;;;;7.20;2.10;;;15.70;99.90;;;;;;8435805;28;20051;-73
2024/03/04 13:41:59;;;;;;;4.68;1.95;;;15.60;99.90;;;;;;8438287;28;20040;-73
2024/03/04 13:46:02;;;;;;;7.80;2.10;;;15.50;99.90;;;;;;8436539;28;20167;-72
2024/03/04 13:50:04;;;;;;;3.78;2.10;;;15.40;99.90;;;;;;8441695;28;20534;-73
2024/03/04 13:54:08;;;;;;;5.30;2.10;;;15.40;99.90;;;;;;8433654;28;20063;-72
2024/03/04 13:58:10;;;;;;;4.43;2.05;;;15.40;99.90;;;;;;8441741;28;20077;-73
2024/03/04 14:02:12;;;;;;;5.38;2.38;;;15.30;99.90;;;;;;8444695;28;20048;-73
2024/03/04 14:06:14;;;;;;;4.60;2.00;;;15.30;99.90;;;;;;8440244;28;21084;-73
2024/03/04 14:10:16;;;;;;;4.90;2.30;;;15.40;99.90;;;;;;8441355;27;20073;-73
2024/03/04 14:14:18;;;;;;;4.43;2.10;;;15.50;99.90;;;;;;8432447;27;20086;-73
2024/03/04 14:18:20;;;;;;;4.82;2.40;;;15.70;99.90;;;;;;8442332;28;20106;-73
2024/03/04 14:22:22;;;;;;;5.28;2.20;;;15.70;99.90;;;;;;8429240;28;20058;-73
2024/03/04 14:26:24;;;;;;;3.70;1.90;;;15.70;99.90;;;;;;8429197;28;20130;-73
2024/03/04 14:30:29;;;;;;;4.53;1.80;;;15.80;99.90;;;;;;8425560;28;20044;-73
2024/03/04 14:34:31;;;;;;;3.50;1.80;;;16.20;99.90;;;;;;8423753;28;20497;-73
2024/03/04 14:38:34;;;;;;;4.53;1.90;;;17.30;99.90;;;;;;8428385;28;20084;-73
2024/03/04 14:42:36;;;;;;;4.20;1.67;;;18.80;99.90;;;;;;8439393;28;20094;-73
2024/03/04 14:46:41;;;;;;;3.90;1.90;;;19.80;99.90;;;;;;8438042;28;20052;-74
2024/03/04 14:50:43;;;;;;;3.97;1.88;;;20.80;99.90;;;;;;8428232;28;20089;-74
2024/03/04 14:54:46;;;;;;;3.20;1.50;;;21.70;99.90;;;;;;8423656;27;20108;-73
2024/03/04 14:58:48;;;;;;;3.72;1.50;;;22.40;99.90;;;;;;8423878;28;20384;-74
2024/03/04 15:02:51;;;;;;;2.78;1.55;;;22.90;99.90;;;;;;8421250;28;20095;-74
2024/03/04 15:06:52;;;;;;;3.75;1.40;;;23.20;99.90;;;;;;8424831;28;20113;-73
2024/03/04 15:10:54;;;;;;;3.20;1.70;;;23.30;99.90;;;;;;8426515;28;20061;-74
2024/03/04 15:15:00;;;;;;;3.63;1.85;;;23.10;99.90;;;;;;8421943;28;20044;-74
2024/03/04 15:19:03;;;;;;;5.80;1.90;;;22.80;99.90;;;;;;8424317;28;20392;-73
2024/03/04 15:23:05;;;;;;;3.92;1.80;;;22.50;99.90;;;;;;8425018;28;20040;-73
2024/03/04 15:27:07;;;;;;;4.10;1.85;;;22.50;99.90;;;;;;8423485;28;20043;-74
2024/03/04 15:31:09;;;;;;;3.72;1.98;;;22.30;99.90;;;;;;8423159;27;20479;-74
2024/03/04 15:35:11;;;;;;;4.32;1.77;;;21.90;99.90;;;;;;8427975;28;20130;-73
2024/03/04 15:39:13;;;;;;;3.90;1.88;;;21.60;99.90;;;;;;8424721;28;20382;-74
2024/03/04 15:43:14;;;;;;;3.75;1.80;;;21.40;99.90;;;;;;8422946;28;20040;-73
2024/03/04 15:47:16;;;;;;;3.55;1.80;;;21.10;99.90;;;;;;8421683;28;20432;-73
2024/03/04 15:51:19;;;;;;;4.15;1.75;;;20.90;99.90;;;;;;8419517;28;20036;-74
2024/03/04 15:55:21;;;;;;;3.38;1.65;;;20.70;99.90;;;;;;8425059;27;20044;-73
2024/03/04 15:59:23;;;;;;;3.75;1.83;;;20.40;99.90;;;;;;8438652;28;20130;-73
2024/03/04 16:03:25;;;;;;;4.13;1.60;;;20.40;99.90;;;;;;8420370;27;20047;-73
2024/03/04 16:07:27;;;;;;;3.42;1.50;;;20.70;99.90;;;;;;8424271;28;20044;-73
2024/03/04 16:11:28;;;;;;;2.92;1.40;;;21.00;99.90;;;;;;8421001;28;20399;-73
2024/03/04 16:15:32;;;;;;;3.75;1.73;;;20.80;99.90;;;;;;8421191;28;20080;-74
2024/03/04 16:19:48;;;;;;;4.72;1.75;;;20.30;99.90;;;;;;8432645;28;20074;-73
2024/03/04 16:23:51;;;;;;;5.57;1.58;;;19.90;99.90;;;;;;8434548;28;20043;-73
2024/03/04 16:27:54;;;;;;;3.28;1.65;;;19.60;99.90;;;;;;8423589;28;20051;-73
2024/03/04 16:31:56;;;;;;;4.55;1.80;;;19.60;99.90;;;;;;8420466;28;20055;-73
2024/03/04 16:35:58;;;;;;;3.92;1.67;;;19.40;99.90;;;;;;8438251;27;20040;-73
2024/03/04 16:40:01;;;;;;;4.45;1.80;;;19.00;99.90;;;;;;8421524;28;20052;-73
2024/03/04 16:44:04;;;;;;;4.15;1.70;;;18.60;99.90;;;;;;8423942;28;20044;-73
2024/03/04 16:48:06;;;;;;;3.65;1.63;;;18.40;99.90;;;;;;8421937;28;20044;-74
2024/03/04 16:52:08;;;;;;;4.22;1.70;;;18.00;99.90;;;;;;8426351;28;20036;-73
2024/03/04 16:56:10;;;;;;;3.83;1.70;;;17.60;99.90;;;;;;8419064;28;20052;-73
2024/03/04 17:00:13;;;;;;;4.22;1.65;;;17.20;99.90;;;;;;8429919;28;20105;-73
2024/03/04 17:04:14;;;;;;;3.47;1.40;;;16.80;99.90;;;;;;8423857;28;20043;-73
2024/03/04 17:08:16;;;;;;;4.05;1.30;;;16.40;99.90;;;;;;8418577;28;20426;-73
2024/03/04 17:12:18;;;;;;;3.95;1.40;;;16.00;99.90;;;;;;8420799;28;20099;-73
2024/03/04 17:16:20;;;;;;;3.40;1.30;;;15.80;99.90;;;;;;8425021;28;20487;-73
2024/03/04 17:20:22;;;;;;;4.88;1.30;;;15.70;99.90;;;;;;8432309;28;20118;-73
2024/03/04 17:24:24;;;;;;;4.75;1.40;;;15.40;99.90;;;;;;8420507;28;20040;-73
2024/03/04 17:28:26;;;;;;;3.67;1.63;;;15.20;99.90;;;;;;8423347;28;20147;-73
2024/03/04 17:32:29;;;;;;;4.70;1.67;;;15.00;99.90;;;;;;8425664;27;20050;-73
2024/03/04 17:36:41;;;;;;;3.53;1.50;;;14.80;99.90;;;;;;8422769;28;20079;-73
2024/03/04 17:40:43;;;;;;;3.70;1.60;;;14.60;99.90;;;;;;8437781;28;20059;-73
2024/03/04 17:44:45;;;;;;;4.80;1.63;;;14.40;99.90;;;;;;8425504;27;20051;-73
2024/03/04 17:48:47;;;;;;;3.13;1.38;;;14.30;99.90;;;;;;8424491;28;20105;-73
2024/03/04 17:52:48;;;;;;;3.20;1.50;;;14.10;99.90;;;;;;8429683;28;20044;-73
2024/03/04 17:56:50;;;;;;;3.63;1.60;;;13.90;99.90;;;;;;8446428;28;20059;-73
2024/03/04 18:00:52;;;;;;;3.35;1.50;;;13.80;99.90;;;;;;8432881;28;20450;-73
2024/03/04 18:04:54;;;;;;;3.22;1.52;;;13.60;99.90;;;;;;8435304;28;20130;-73
2024/03/04 18:08:56;;;;;;;3.88;1.63;;;13.40;99.90;;;;;;8430415;27;20047;-73
2024/03/04 18:12:59;;;;;;;3.30;1.48;;;13.30;99.90;;;;;;8433476;28;20098;-73
2024/03/04 18:17:01;;;;;;;5.13;1.60;;;13.20;99.90;;;;;;8441911;28;20089;-73
2024/03/04 18:21:04;;;;;;;3.63;1.58;;;13.10;99.90;;;;;;8441606;27;20040;-72
2024/03/04 18:25:06;;;;;;;4.45;1.48;;;13.00;99.90;;;;;;8467676;27;20105;-73
2024/03/04 18:29:08;;;;;;;3.35;1.40;;;12.80;99.90;;;;;;8430194;28;20433;-73
2024/03/04 18:33:10;;;;;;;3.22;1.40;;;12.70;99.90;;;;;;8428788;28;20047;-73
2024/03/04 18:37:12;;;;;;;3.35;1.20;;;12.70;99.90;;;;;;8420716;28;20510;-73
2024/03/04 18:41:19;;;;;;;2.72;1.30;;;12.60;99.90;;;;;;8427478;28;20525;-73
2024/03/04 18:45:21;;;;;;;2.80;1.20;;;12.40;99.90;;;;;;8436388;28;20051;-74
2024/03/04 18:49:23;;;;;;;2.67;1.13;;;12.30;99.90;;;;;;8436780;28;20066;-73
2024/03/04 18:53:25;;;;;;;3.95;1.30;;;12.20;99.90;;;;;;8438767;28;20481;-73
2024/03/04 18:57:27;;;;;;;2.72;1.20;;;11.90;99.90;;;;;;8434161;27;20043;-73
2024/03/04 19:01:29;;;;;;;2.70;1.38;;;11.80;99.90;;;;;;8440814;28;20048;-72
2024/03/04 19:05:32;;;;;;;4.03;1.40;;;11.60;99.90;;;;;;8424660;28;20349;-72
2024/03/04 19:09:34;;;;;;;3.13;1.45;;;11.40;99.90;;;;;;8439055;28;20047;-72
2024/03/04 19:13:36;;;;;;;4.78;1.98;;;11.40;99.90;;;;;;8425116;28;20514;-72
2024/03/04 19:17:39;;;;;;;4.40;1.73;;;11.30;99.90;;;;;;8436800;28;20044;-72
2024/03/04 19:21:41;;;;;;;3.10;1.33;;;11.20;99.90;;;;;;8431268;28;20051;-72
2024/03/04 19:25:43;;;;;;;5.15;1.70;;;11.10;99.90;;;;;;8434878;28;20052;-72
2024/03/04 19:29:45;;;;;;;3.63;1.40;;;11.00;99.90;;;;;;8438989;28;20048;-72
2024/03/04 19:33:54;;;;;;;3.08;1.50;;;10.90;99.90;;;;;;8431613;28;20556;-72
2024/03/04 19:37:55;;;;;;;3.40;1.55;;;10.80;99.90;;;;;;8427392;28;20052;-72
2024/03/04 19:41:57;;;;;;;5.88;1.92;;;10.60;99.90;;;;;;8429957;28;20052;-72
2024/03/04 19:46:03;;;;;;;3.67;1.80;;;10.60;99.90;;;;;;8442419;27;20055;-73
2024/03/04 19:50:05;;;;;;;6.32;1.92;;;10.40;99.90;;;;;;8440821;28;20036;-73
2024/03/04 19:54:07;;;;;;;4.90;2.22;;;10.30;99.90;;;;;;8430996;28;20430;-72
2024/03/04 19:58:09;;;;;;;8.07;2.53;;;10.20;99.90;;;;;;8439156;28;20059;-72
2024/03/04 20:02:11;;;;;;;4.40;2.38;;;10.20;99.90;;;;;;8433338;27;20498;-72
2024/03/04 20:06:13;;;;;;;4.60;1.98;;;10.20;99.90;;;;;;8431660;28;20040;-73
2024/03/04 20:10:15;;;;;;;5.43;2.50;;;10.10;99.90;;;;;;8435631;28;20043;-72
2024/03/04 20:14:17;;;;;;;4.18;1.80;;;10.20;99.90;;;;;;8436857;28;20039;-72
2024/03/04 20:18:19;;;;;;;4.85;2.17;;;10.10;99.90;;;;;;8421135;28;20051;-72
2024/03/04 20:22:21;;;;;;;5.80;2.33;;;10.00;99.90;;;;;;8426362;28;20400;-72
2024/03/04 20:26:23;;;;;;;5.22;2.00;;;10.00;99.90;;;;;;8423594;27;20097;-72
2024/03/04 20:30:25;;;;;;;6.68;2.35;;;9.90;99.90;;;;;;8423283;28;20079;-73
2024/03/04 20:34:27;;;;;;;4.03;2.08;;;9.80;99.90;;;;;;8422625;28;20043;-72
2024/03/04 20:38:28;;;;;;;6.43;2.22;;;9.70;99.90;;;;;;8425851;28;20067;-73
2024/03/04 20:42:31;;;;;;;5.50;2.40;;;9.60;99.90;;;;;;8422021;28;20074;-72
2024/03/04 20:46:33;;;;;;;4.78;2.50;;;9.50;99.90;;;;;;8421810;28;20039;-72
2024/03/04 20:50:35;;;;;;;4.80;2.40;;;9.40;99.90;;;;;;8421770;28;20327;-72
2024/03/04 20:54:38;;;;;;;5.32;2.63;;;9.40;99.90;;;;;;8422546;28;20135;-72
2024/03/04 20:58:41;;;;;;;5.03;2.63;;;9.40;99.90;;;;;;8421344;28;20056;-72
2024/03/04 21:02:46;;;;;;;5.80;2.70;;;9.30;99.90;;;;;;8420531;28;20052;-72
2024/03/04 21:06:48;;;;;;;4.72;2.63;;;9.20;99.90;;;;;;8424497;28;20387;-72
2024/03/04 21:10:50;;;;;;;4.80;2.53;;;9.10;99.90;;;;;;8426318;28;20086;-72
2024/03/04 21:14:52;;;;;;;5.93;3.03;;;9.10;99.90;;;;;;8418566;28;20071;-72
2024/03/04 21:18:54;;;;;;;5.55;2.60;;;9.00;99.90;;;;;;8429364;28;20495;-72